sensor_id;sensor_type;location;lat;lon;timestamp;pressure;altitude;pressure_sealevel;temperature;humidity
21111;BME280;10713;51.912;4.494;2022-11-20T00:01:07;101372.72;;;0.43;100.00
21111;BME280;10713;51.912;4.494;2022-11-20T00:03:32;101369.97;;;0.29;100.00
21111;BME280;10713;51.912;4.494;2022-11-20T00:06:02;101373.44;;;0.31;100.00
21111;BME280;10713;51.912;4.494;2022-11-20T00:08:28;101372.53;;;0.26;100.00
21111;BME280;10713;51.912;4.494;2022-11-20T00:10:53;101369.88;;;0.21;100.00
21111;BME280;10713;51.912;4.494;2022-11-20T00:13:19;101359.47;;;0.18;100.00
21111;BME280;10713;51.912;4.494;2022-11-20T00:15:44;101356.88;;;0.18;100.00
21111;BME280;10713;51.912;4.494;2022-11-20T00:18:09;101359.44;;;0.15;100.00
21111;BME280;10713;51.912;4.494;2022-11-20T00:20:35;101361.91;;;0.06;100.00
21111;BME280;10713;51.912;4.494;2022-11-20T00:23:00;101352.53;;;0.17;100.00
21111;BME280;10713;51.912;4.494;2022-11-20T00:25:25;101361.22;;;0.21;100.00
21111;BME280;10713;51.912;4.494;2022-11-20T00:27:51;101362.19;;;0.31;100.00
21111;BME280;10713;51.912;4.494;2022-11-20T00:30:17;101359.56;;;0.28;100.00
21111;BME280;10713;51.912;4.494;2022-11-20T00:32:43;101359.31;;;0.06;100.00
21111;BME280;10713;51.912;4.494;2022-11-20T00:35:08;101358.44;;;0.04;100.00
21111;BME280;10713;51.912;4.494;2022-11-20T00:37:33;101349.75;;;0.01;100.00
21111;BME280;10713;51.912;4.494;2022-11-20T00:39:59;101339.25;;;-0.07;100.00
21111;BME280;10713;51.912;4.494;2022-11-20T00:42:24;101340.94;;;-0.11;100.00
21111;BME280;10713;51.912;4.494;2022-11-20T00:44:50;101347.88;;;-0.10;100.00
21111;BME280;10713;51.912;4.494;2022-11-20T00:47:15;101346.16;;;-0.09;100.00
21111;BME280;10713;51.912;4.494;2022-11-20T00:49:41;101353.09;;;-0.07;100.00
21111;BME280;10713;51.912;4.494;2022-11-20T00:52:06;101349.66;;;-0.06;100.00
21111;BME280;10713;51.912;4.494;2022-11-20T00:54:33;101352.28;;;-0.06;100.00
21111;BME280;10713;51.912;4.494;2022-11-20T00:56:58;101345.28;;;-0.11;100.00
21111;BME280;10713;51.912;4.494;2022-11-20T00:59:23;101348.75;;;-0.09;100.00
21111;BME280;10713;51.912;4.494;2022-11-20T01:01:49;101350.44;;;-0.13;100.00
21111;BME280;10713;51.912;4.494;2022-11-20T01:04:15;101355.66;;;-0.10;100.00
21111;BME280;10713;51.912;4.494;2022-11-20T01:06:40;101351.41;;;-0.05;100.00
21111;BME280;10713;51.912;4.494;2022-11-20T01:09:11;101362.78;;;0.07;100.00
21111;BME280;10713;51.912;4.494;2022-11-20T01:11:39;101361.94;;;0.08;100.00
21111;BME280;10713;51.912;4.494;2022-11-20T01:14:07;101350.66;;;0.04;100.00
21111;BME280;10713;51.912;4.494;2022-11-20T01:16:41;101343.69;;;0.02;100.00
21111;BME280;10713;51.912;4.494;2022-11-20T01:19:10;101341.06;;;-0.02;100.00
21111;BME280;10713;51.912;4.494;2022-11-20T01:21:39;101339.34;;;0.01;100.00
21111;BME280;10713;51.912;4.494;2022-11-20T01:24:06;101342.81;;;0.03;100.00
21111;BME280;10713;51.912;4.494;2022-11-20T01:26:34;101356.66;;;0.02;100.00
21111;BME280;10713;51.912;4.494;2022-11-20T01:29:01;101356.72;;;0.08;100.00
21111;BME280;10713;51.912;4.494;2022-11-20T01:31:29;101354.75;;;-0.12;100.00
21111;BME280;10713;51.912;4.494;2022-11-20T01:33:57;101358.19;;;-0.16;100.00
21111;BME280;10713;51.912;4.494;2022-11-20T01:36:25;101348.63;;;-0.18;100.00
21111;BME280;10713;51.912;4.494;2022-11-20T01:38:53;101344.31;;;-0.18;100.00
21111;BME280;10713;51.912;4.494;2022-11-20T01:41:20;101353.75;;;-0.23;100.00
21111;BME280;10713;51.912;4.494;2022-11-20T01:44:06;101346.88;;;-0.21;100.00
21111;BME280;10713;51.912;4.494;2022-11-20T01:46:33;101333.00;;;-0.25;100.00
21111;BME280;10713;51.912;4.494;2022-11-20T01:54:07;101344.38;;;-0.13;100.00
21111;BME280;10713;51.912;4.494;2022-11-20T01:56:37;101341.78;;;-0.13;100.00
21111;BME280;10713;51.912;4.494;2022-11-20T01:59:05;101334.81;;;-0.14;100.00
21111;BME280;10713;51.912;4.494;2022-11-20T02:01:32;101345.28;;;-0.11;100.00
21111;BME280;10713;51.912;4.494;2022-11-20T02:03:58;101346.09;;;-0.14;100.00
21111;BME280;10713;51.912;4.494;2022-11-20T02:06:35;101334.81;;;-0.16;100.00
21111;BME280;10713;51.912;4.494;2022-11-20T02:09:03;101325.34;;;-0.14;100.00
21111;BME280;10713;51.912;4.494;2022-11-20T02:11:30;101336.63;;;-0.10;100.00
21111;BME280;10713;51.912;4.494;2022-11-20T02:13:56;101337.56;;;-0.05;100.00
21111;BME280;10713;51.912;4.494;2022-11-20T02:16:29;101335.78;;;-0.08;100.00
21111;BME280;10713;51.912;4.494;2022-11-20T02:18:59;101332.41;;;-0.01;100.00
21111;BME280;10713;51.912;4.494;2022-11-20T02:21:49;101334.19;;;0.05;100.00
21111;BME280;10713;51.912;4.494;2022-11-20T02:24:21;101327.28;;;0.04;100.00
21111;BME280;10713;51.912;4.494;2022-11-20T02:26:52;101322.44;;;0.35;100.00
21111;BME280;10713;51.912;4.494;2022-11-20T02:29:31;101319.50;;;0.06;100.00
21111;BME280;10713;51.912;4.494;2022-11-20T02:31:58;101319.41;;;-0.05;100.00
21111;BME280;10713;51.912;4.494;2022-11-20T02:34:25;101327.03;;;-0.16;100.00
21111;BME280;10713;51.912;4.494;2022-11-20T02:36:52;101320.22;;;-0.08;100.00
21111;BME280;10713;51.912;4.494;2022-11-20T02:39:19;101318.44;;;-0.13;100.00
21111;BME280;10713;51.912;4.494;2022-11-20T02:41:45;101324.38;;;-0.20;100.00
21111;BME280;10713;51.912;4.494;2022-11-20T02:44:11;101317.72;;;0.02;100.00
21111;BME280;10713;51.912;4.494;2022-11-20T02:46:36;101309.31;;;0.26;100.00
21111;BME280;10713;51.912;4.494;2022-11-20T02:49:03;101304.56;;;-0.15;100.00
21111;BME280;10713;51.912;4.494;2022-11-20T02:51:29;101309.59;;;-0.26;100.00
21111;BME280;10713;51.912;4.494;2022-11-20T02:53:54;101319.13;;;-0.27;100.00
21111;BME280;10713;51.912;4.494;2022-11-20T02:56:19;101312.22;;;-0.23;100.00
21111;BME280;10713;51.912;4.494;2022-11-20T02:58:45;101310.59;;;-0.16;100.00
21111;BME280;10713;51.912;4.494;2022-11-20T03:01:10;101300.25;;;-0.13;100.00
21111;BME280;10713;51.912;4.494;2022-11-20T03:03:35;101303.75;;;-0.10;100.00
21111;BME280;10713;51.912;4.494;2022-11-20T03:06:01;101293.41;;;-0.08;100.00
21111;BME280;10713;51.912;4.494;2022-11-20T03:08:26;101294.16;;;-0.15;100.00
21111;BME280;10713;51.912;4.494;2022-11-20T03:10:52;101289.84;;;-0.16;100.00
21111;BME280;10713;51.912;4.494;2022-11-20T03:13:17;101282.03;;;-0.18;100.00
21111;BME280;10713;51.912;4.494;2022-11-20T03:15:43;101285.56;;;-0.13;100.00
21111;BME280;10713;51.912;4.494;2022-11-20T03:18:08;101276.03;;;-0.14;100.00
21111;BME280;10713;51.912;4.494;2022-11-20T03:20:34;101284.72;;;-0.10;100.00
21111;BME280;10713;51.912;4.494;2022-11-20T03:22:59;101278.72;;;-0.03;100.00
21111;BME280;10713;51.912;4.494;2022-11-20T03:25:25;101281.41;;;0.00;100.00
21111;BME280;10713;51.912;4.494;2022-11-20T03:27:50;101271.88;;;0.01;100.00
21111;BME280;10713;51.912;4.494;2022-11-20T03:30:16;101281.34;;;-0.02;100.00
21111;BME280;10713;51.912;4.494;2022-11-20T03:32:41;101271.84;;;-0.01;100.00
21111;BME280;10713;51.912;4.494;2022-11-20T03:35:07;101276.22;;;0.03;100.00
21111;BME280;10713;51.912;4.494;2022-11-20T03:37:32;101265.81;;;0.00;100.00
21111;BME280;10713;51.912;4.494;2022-11-20T03:39:58;101258.78;;;-0.09;100.00
21111;BME280;10713;51.912;4.494;2022-11-20T03:42:23;101264.03;;;-0.04;100.00
21111;BME280;10713;51.912;4.494;2022-11-20T03:45:07;101268.38;;;-0.02;100.00
21111;BME280;10713;51.912;4.494;2022-11-20T03:47:32;101264.88;;;-0.04;100.00
21111;BME280;10713;51.912;4.494;2022-11-20T03:49:58;101263.03;;;-0.15;100.00
21111;BME280;10713;51.912;4.494;2022-11-20T03:52:23;101260.41;;;-0.18;100.00
21111;BME280;10713;51.912;4.494;2022-11-20T03:54:48;101257.78;;;-0.21;100.00
21111;BME280;10713;51.912;4.494;2022-11-20T03:57:14;101239.66;;;-0.20;100.00
21111;BME280;10713;51.912;4.494;2022-11-20T03:59:39;101243.06;;;-0.22;100.00
21111;BME280;10713;51.912;4.494;2022-11-20T04:02:04;101229.22;;;-0.23;100.00
21111;BME280;10713;51.912;4.494;2022-11-20T04:04:30;101239.59;;;-0.23;100.00
21111;BME280;10713;51.912;4.494;2022-11-20T04:06:55;101229.22;;;-0.23;100.00
21111;BME280;10713;51.912;4.494;2022-11-20T04:09:20;101226.59;;;-0.28;100.00
21111;BME280;10713;51.912;4.494;2022-11-20T04:11:46;101221.44;;;-0.21;100.00
21111;BME280;10713;51.912;4.494;2022-11-20T04:14:13;101219.63;;;-0.30;100.00
21111;BME280;10713;51.912;4.494;2022-11-20T04:16:39;101225.69;;;-0.31;100.00
21111;BME280;10713;51.912;4.494;2022-11-20T04:19:09;101211.78;;;-0.36;100.00
21111;BME280;10713;51.912;4.494;2022-11-20T04:21:35;101214.34;;;-0.39;100.00
21111;BME280;10713;51.912;4.494;2022-11-20T04:24:00;101204.75;;;-0.45;100.00
21111;BME280;10713;51.912;4.494;2022-11-20T04:26:27;101211.66;;;-0.49;100.00
21111;BME280;10713;51.912;4.494;2022-11-20T04:28:53;101215.97;;;-0.46;100.00
21111;BME280;10713;51.912;4.494;2022-11-20T04:31:21;101220.41;;;-0.39;100.00
21111;BME280;10713;51.912;4.494;2022-11-20T04:33:47;101222.09;;;-0.41;100.00
21111;BME280;10713;51.912;4.494;2022-11-20T04:36:18;101226.47;;;-0.35;100.00
21111;BME280;10713;51.912;4.494;2022-11-20T04:38:44;101227.38;;;-0.33;100.00
21111;BME280;10713;51.912;4.494;2022-11-20T04:41:14;101227.38;;;-0.33;100.00
21111;BME280;10713;51.912;4.494;2022-11-20T04:43:40;101233.50;;;-0.28;100.00
21111;BME280;10713;51.912;4.494;2022-11-20T04:46:05;101224.84;;;-0.27;100.00
21111;BME280;10713;51.912;4.494;2022-11-20T04:48:30;101224.78;;;-0.33;100.00
21111;BME280;10713;51.912;4.494;2022-11-20T04:50:56;101218.72;;;-0.34;100.00
21111;BME280;10713;51.912;4.494;2022-11-20T04:53:22;101221.38;;;-0.26;100.00
21111;BME280;10713;51.912;4.494;2022-11-20T04:55:48;101217.03;;;-0.29;100.00
21111;BME280;10713;51.912;4.494;2022-11-20T04:58:14;101217.00;;;-0.33;100.00
21111;BME280;10713;51.912;4.494;2022-11-20T05:00:40;101206.63;;;-0.33;100.00
21111;BME280;10713;51.912;4.494;2022-11-20T05:03:06;101213.53;;;-0.32;100.00
21111;BME280;10713;51.912;4.494;2022-11-20T05:05:33;101208.38;;;-0.31;100.00
21111;BME280;10713;51.912;4.494;2022-11-20T05:07:59;101211.00;;;-0.26;100.00
21111;BME280;10713;51.912;4.494;2022-11-20T05:10:25;101210.91;;;-0.37;100.00
21111;BME280;10713;51.912;4.494;2022-11-20T05:12:51;101217.94;;;-0.27;100.00
21111;BME280;10713;51.912;4.494;2022-11-20T05:15:16;101220.53;;;-0.27;100.00
21111;BME280;10713;51.912;4.494;2022-11-20T05:17:50;101222.28;;;-0.26;100.00
21111;BME280;10713;51.912;4.494;2022-11-20T05:20:16;101232.69;;;-0.22;100.00
21111;BME280;10713;51.912;4.494;2022-11-20T05:22:43;101219.66;;;-0.27;100.00
21111;BME280;10713;51.912;4.494;2022-11-20T05:25:09;101226.47;;;-0.35;100.00
21111;BME280;10713;51.912;4.494;2022-11-20T05:27:34;101226.44;;;-0.38;100.00
21111;BME280;10713;51.912;4.494;2022-11-20T05:29:59;101229.06;;;-0.37;100.00
21111;BME280;10713;51.912;4.494;2022-11-20T05:32:25;101223.03;;;-0.36;100.00
21111;BME280;10713;51.912;4.494;2022-11-20T05:34:53;101219.63;;;-0.30;100.00
21111;BME280;10713;51.912;4.494;2022-11-20T05:37:19;101217.97;;;-0.25;100.00
21111;BME280;10713;51.912;4.494;2022-11-20T05:39:44;101216.22;;;-0.25;100.00
21111;BME280;10713;51.912;4.494;2022-11-20T05:42:09;101217.19;;;-0.16;100.00
21111;BME280;10713;51.912;4.494;2022-11-20T05:44:53;101202.47;;;-0.14;100.00
21111;BME280;10713;51.912;4.494;2022-11-20T05:47:18;101199.09;;;-0.09;100.00
21111;BME280;10713;51.912;4.494;2022-11-20T05:49:43;101197.34;;;-0.10;100.00
21111;BME280;10713;51.912;4.494;2022-11-20T05:52:09;101186.06;;;-0.15;100.00
21111;BME280;10713;51.912;4.494;2022-11-20T05:54:34;101189.47;;;-0.19;100.00
21111;BME280;10713;51.912;4.494;2022-11-20T05:57:00;101186.00;;;-0.21;100.00
21111;BME280;10713;51.912;4.494;2022-11-20T05:59:25;101179.03;;;-0.28;100.00
21111;BME280;10713;51.912;4.494;2022-11-20T06:01:50;101173.81;;;-0.28;100.00
21111;BME280;10713;51.912;4.494;2022-11-20T06:04:16;101171.19;;;-0.31;100.00
21111;BME280;10713;51.912;4.494;2022-11-20T06:06:41;101173.78;;;-0.30;100.00
21111;BME280;10713;51.912;4.494;2022-11-20T06:09:06;101175.53;;;-0.29;100.00
21111;BME280;10713;51.912;4.494;2022-11-20T06:11:32;101167.81;;;-0.26;100.00
21111;BME280;10713;51.912;4.494;2022-11-20T06:13:57;101171.28;;;-0.22;100.00
21111;BME280;10713;51.912;4.494;2022-11-20T06:16:22;101172.19;;;-0.18;100.00
21111;BME280;10713;51.912;4.494;2022-11-20T06:18:48;101171.28;;;-0.20;100.00
21111;BME280;10713;51.912;4.494;2022-11-20T06:21:16;101169.66;;;-0.14;100.00
21111;BME280;10713;51.912;4.494;2022-11-20T06:23:41;101156.66;;;-0.15;100.00
21111;BME280;10713;51.912;4.494;2022-11-20T06:26:09;101157.53;;;-0.13;100.00
21111;BME280;10713;51.912;4.494;2022-11-20T06:28:35;101154.88;;;-0.18;100.00
21111;BME280;10713;51.912;4.494;2022-11-20T06:31:01;101151.44;;;-0.18;100.00
21111;BME280;10713;51.912;4.494;2022-11-20T06:33:27;101151.44;;;-0.20;100.00
21111;BME280;10713;51.912;4.494;2022-11-20T06:35:56;101153.16;;;-0.19;100.00
21111;BME280;10713;51.912;4.494;2022-11-20T06:38:22;101163.50;;;-0.20;100.00
21111;BME280;10713;51.912;4.494;2022-11-20T06:40:47;101159.25;;;-0.15;100.00
21111;BME280;10713;51.912;4.494;2022-11-20T06:43:13;101168.88;;;-0.04;100.00
21111;BME280;10713;51.912;4.494;2022-11-20T06:45:38;101168.06;;;0.05;100.00
21111;BME280;10713;51.912;4.494;2022-11-20T06:48:04;101168.13;;;0.11;100.00
21111;BME280;10713;51.912;4.494;2022-11-20T06:50:29;101166.44;;;0.15;100.00
21111;BME280;10713;51.912;4.494;2022-11-20T06:52:55;101166.47;;;0.18;100.00
21111;BME280;10713;51.912;4.494;2022-11-20T06:55:20;101159.59;;;0.23;100.00
21111;BME280;10713;51.912;4.494;2022-11-20T06:57:46;101167.47;;;0.32;100.00
21111;BME280;10713;51.912;4.494;2022-11-20T07:00:11;101167.44;;;0.34;100.00
21111;BME280;10713;51.912;4.494;2022-11-20T07:02:37;101156.19;;;0.33;100.00
21111;BME280;10713;51.912;4.494;2022-11-20T07:05:03;101163.16;;;0.37;100.00
21111;BME280;10713;51.912;4.494;2022-11-20T07:07:28;101167.53;;;0.44;100.00
21111;BME280;10713;51.912;4.494;2022-11-20T07:09:54;101167.56;;;0.46;100.00
21111;BME280;10713;51.912;4.494;2022-11-20T07:12:19;101160.63;;;0.47;100.00
21111;BME280;10713;51.912;4.494;2022-11-20T07:14:45;101158.03;;;0.47;100.00
21111;BME280;10713;51.912;4.494;2022-11-20T07:17:11;101147.66;;;0.47;100.00
21111;BME280;10713;51.912;4.494;2022-11-20T07:19:36;101150.19;;;0.42;100.00
21111;BME280;10713;51.912;4.494;2022-11-20T07:22:02;101157.94;;;0.36;100.00
21111;BME280;10713;51.912;4.494;2022-11-20T07:24:27;101170.13;;;0.44;100.00
21111;BME280;10713;51.912;4.494;2022-11-20T07:26:52;101160.59;;;0.42;100.00
21111;BME280;10713;51.912;4.494;2022-11-20T07:29:18;101164.00;;;0.33;100.00
21111;BME280;10713;51.912;4.494;2022-11-20T07:31:43;101151.84;;;0.29;100.00
21111;BME280;10713;51.912;4.494;2022-11-20T07:34:08;101152.66;;;0.22;100.00
21111;BME280;10713;51.912;4.494;2022-11-20T07:36:34;101166.56;;;0.29;100.00
21111;BME280;10713;51.912;4.494;2022-11-20T07:39:00;101159.72;;;0.38;100.00
21111;BME280;10713;51.912;4.494;2022-11-20T07:41:25;101162.41;;;0.52;100.00
21111;BME280;10713;51.912;4.494;2022-11-20T07:43:50;101161.56;;;0.55;100.00
21111;BME280;10713;51.912;4.494;2022-11-20T07:46:16;101163.28;;;0.56;100.00
21111;BME280;10713;51.912;4.494;2022-11-20T07:48:41;101166.75;;;0.55;100.00
21111;BME280;10713;51.912;4.494;2022-11-20T07:51:06;101175.41;;;0.55;100.00
21111;BME280;10713;51.912;4.494;2022-11-20T07:53:32;101180.56;;;0.51;100.00
21111;BME280;10713;51.912;4.494;2022-11-20T07:56:01;101169.34;;;0.56;100.00
21111;BME280;10713;51.912;4.494;2022-11-20T07:58:29;101156.34;;;0.53;100.00
21111;BME280;10713;51.912;4.494;2022-11-20T08:00:55;101155.47;;;0.54;100.00
21111;BME280;10713;51.912;4.494;2022-11-20T08:03:20;101140.75;;;0.52;100.00
21111;BME280;10713;51.912;4.494;2022-11-20T08:05:46;101142.53;;;0.62;100.00
21111;BME280;10713;51.912;4.494;2022-11-20T08:08:11;101155.59;;;0.74;100.00
21111;BME280;10713;51.912;4.494;2022-11-20T08:10:37;101149.56;;;0.80;100.00
21111;BME280;10713;51.912;4.494;2022-11-20T08:13:03;101152.22;;;0.84;100.00
21111;BME280;10713;51.912;4.494;2022-11-20T08:15:50;101154.03;;;1.05;100.00
21111;BME280;10713;51.912;4.494;2022-11-20T08:18:19;101150.66;;;1.25;100.00
21111;BME280;10713;51.912;4.494;2022-11-20T08:20:44;101143.78;;;1.48;100.00
21111;BME280;10713;51.912;4.494;2022-11-20T08:23:10;101154.25;;;1.65;100.00
21111;BME280;10713;51.912;4.494;2022-11-20T08:25:37;101149.09;;;1.77;100.00
21111;BME280;10713;51.912;4.494;2022-11-20T08:28:08;101149.13;;;2.03;100.00
21111;BME280;10713;51.912;4.494;2022-11-20T08:30:35;101143.03;;;2.18;100.00
21111;BME280;10713;51.912;4.494;2022-11-20T08:33:08;101143.88;;;2.45;100.00
21111;BME280;10713;51.912;4.494;2022-11-20T08:35:35;101146.50;;;2.43;100.00
21111;BME280;10713;51.912;4.494;2022-11-20T08:38:02;101137.81;;;2.51;100.00
21111;BME280;10713;51.912;4.494;2022-11-20T08:40:27;101141.28;;;2.56;100.00
21111;BME280;10713;51.912;4.494;2022-11-20T08:42:52;101136.06;;;2.59;100.00
21111;BME280;10713;51.912;4.494;2022-11-20T08:45:18;101136.06;;;2.51;100.00
21111;BME280;10713;51.912;4.494;2022-11-20T08:47:44;101130.81;;;2.60;100.00
21111;BME280;10713;51.912;4.494;2022-11-20T08:50:11;101129.16;;;2.38;100.00
21111;BME280;10713;51.912;4.494;2022-11-20T08:52:37;101136.09;;;2.36;100.00
21111;BME280;10713;51.912;4.494;2022-11-20T08:55:03;101132.59;;;2.34;100.00
21111;BME280;10713;51.912;4.494;2022-11-20T08:57:31;101130.88;;;2.19;100.00
21111;BME280;10713;51.912;4.494;2022-11-20T08:59:57;101125.66;;;1.96;100.00
21111;BME280;10713;51.912;4.494;2022-11-20T09:02:22;101126.53;;;1.87;100.00
21111;BME280;10713;51.912;4.494;2022-11-20T09:04:47;101121.31;;;1.93;100.00
21111;BME280;10713;51.912;4.494;2022-11-20T09:07:13;101130.03;;;2.15;100.00
21111;BME280;10713;51.912;4.494;2022-11-20T09:09:38;101120.47;;;2.22;100.00
21111;BME280;10713;51.912;4.494;2022-11-20T09:12:04;101116.09;;;2.33;100.00
21111;BME280;10713;51.912;4.494;2022-11-20T09:14:29;101111.78;;;2.38;100.00
21111;BME280;10713;51.912;4.494;2022-11-20T09:16:55;101112.63;;;2.42;100.00
21111;BME280;10713;51.912;4.494;2022-11-20T09:19:21;101109.09;;;2.60;100.00
21111;BME280;10713;51.912;4.494;2022-11-20T09:21:46;101100.47;;;2.39;100.00
21111;BME280;10713;51.912;4.494;2022-11-20T09:24:11;101098.72;;;2.40;100.00
21111;BME280;10713;51.912;4.494;2022-11-20T09:26:37;101096.13;;;2.52;100.00
21111;BME280;10713;51.912;4.494;2022-11-20T09:29:02;101101.34;;;2.44;100.00
21111;BME280;10713;51.912;4.494;2022-11-20T09:31:27;101090.03;;;2.45;100.00
21111;BME280;10713;51.912;4.494;2022-11-20T09:33:53;101085.69;;;2.40;100.00
21111;BME280;10713;51.912;4.494;2022-11-20T09:36:18;101075.22;;;2.63;100.00
21111;BME280;10713;51.912;4.494;2022-11-20T09:38:47;101061.28;;;2.71;100.00
21111;BME280;10713;51.912;4.494;2022-11-20T09:43:59;101046.53;;;2.72;100.00
21111;BME280;10713;51.912;4.494;2022-11-20T09:50:04;101028.16;;;3.01;100.00
21111;BME280;10713;51.912;4.494;2022-11-20T09:55:29;101034.31;;;2.80;100.00
21111;BME280;10713;51.912;4.494;2022-11-20T09:57:56;101039.56;;;2.76;100.00
21111;BME280;10713;51.912;4.494;2022-11-20T10:00:22;101032.53;;;2.88;100.00
21111;BME280;10713;51.912;4.494;2022-11-20T10:05:30;101019.41;;;3.05;100.00
21111;BME280;10713;51.912;4.494;2022-11-20T10:10:32;101004.78;;;2.80;100.00
21111;BME280;10713;51.912;4.494;2022-11-20T10:13:14;100984.75;;;2.89;100.00
21111;BME280;10713;51.912;4.494;2022-11-20T10:30:08;100982.06;;;3.06;100.00
21111;BME280;10713;51.912;4.494;2022-11-20T10:32:59;100972.50;;;2.99;100.00
21111;BME280;10713;51.912;4.494;2022-11-20T10:35:35;100967.28;;;3.02;100.00
21111;BME280;10713;51.912;4.494;2022-11-20T10:38:10;100955.81;;;3.26;100.00
21111;BME280;10713;51.912;4.494;2022-11-20T10:40:45;100967.84;;;3.43;100.00
21111;BME280;10713;51.912;4.494;2022-11-20T10:43:25;100960.88;;;3.49;100.00
21111;BME280;10713;51.912;4.494;2022-11-20T10:45:57;100958.75;;;3.90;100.00
21111;BME280;10713;51.912;4.494;2022-11-20T10:48:27;100947.84;;;4.33;100.00
21111;BME280;10713;51.912;4.494;2022-11-20T10:56:21;100916.47;;;4.33;100.00
21111;BME280;10713;51.912;4.494;2022-11-20T10:59:11;100914.13;;;4.08;100.00
21111;BME280;10713;51.912;4.494;2022-11-20T11:01:45;100909.28;;;3.74;100.00
21111;BME280;10713;51.912;4.494;2022-11-20T11:04:23;100909.91;;;3.96;100.00
21111;BME280;10713;51.912;4.494;2022-11-20T11:06:58;100899.16;;;4.22;100.00
21111;BME280;10713;51.912;4.494;2022-11-20T11:09:33;100893.19;;;4.11;100.00
21111;BME280;10713;51.912;4.494;2022-11-20T11:12:00;100900.34;;;3.98;100.00
21111;BME280;10713;51.912;4.494;2022-11-20T11:14:25;100889.03;;;3.96;100.00
21111;BME280;10713;51.912;4.494;2022-11-20T11:16:55;100894.06;;;4.13;100.00
21111;BME280;10713;51.912;4.494;2022-11-20T11:19:21;100893.34;;;3.97;100.00
21111;BME280;10713;51.912;4.494;2022-11-20T11:21:51;100880.25;;;4.00;100.00
21111;BME280;10713;51.912;4.494;2022-11-20T11:24:25;100846.25;;;4.06;100.00
21111;BME280;10713;51.912;4.494;2022-11-20T11:27:03;100858.16;;;4.26;100.00
21111;BME280;10713;51.912;4.494;2022-11-20T11:29:30;100851.41;;;4.11;100.00
21111;BME280;10713;51.912;4.494;2022-11-20T11:32:06;100829.69;;;4.06;100.00
21111;BME280;10713;51.912;4.494;2022-11-20T11:34:32;100827.84;;;4.16;100.00
21111;BME280;10713;51.912;4.494;2022-11-20T11:36:58;100815.59;;;4.21;100.00
21111;BME280;10713;51.912;4.494;2022-11-20T11:39:27;100810.28;;;4.25;100.00
21111;BME280;10713;51.912;4.494;2022-11-20T11:41:53;100799.06;;;4.19;100.00
21111;BME280;10713;51.912;4.494;2022-11-20T11:44:21;100798.13;;;4.24;100.00
21111;BME280;10713;51.912;4.494;2022-11-20T11:47:19;100797.03;;;4.39;100.00
21111;BME280;10713;51.912;4.494;2022-11-20T11:49:46;100800.19;;;4.60;100.00
21111;BME280;10713;51.912;4.494;2022-11-20T11:54:48;100791.19;;;4.79;100.00
21111;BME280;10713;51.912;4.494;2022-11-20T12:15:58;100763.97;;;4.91;100.00
21111;BME280;10713;51.912;4.494;2022-11-20T12:18:23;100765.63;;;4.95;100.00
21111;BME280;10713;51.912;4.494;2022-11-20T12:26:44;100750.25;;;4.78;100.00
21111;BME280;10713;51.912;4.494;2022-11-20T12:32:06;100733.13;;;4.59;100.00
21111;BME280;10713;51.912;4.494;2022-11-20T12:37:48;100733.34;;;4.43;100.00
21111;BME280;10713;51.912;4.494;2022-11-20T12:40:49;100724.38;;;4.60;100.00
21111;BME280;10713;51.912;4.494;2022-11-20T12:43:34;100709.44;;;4.68;100.00
21111;BME280;10713;51.912;4.494;2022-11-20T12:46:41;100723.19;;;4.79;100.00
21111;BME280;10713;51.912;4.494;2022-11-20T12:52:06;100702.31;;;4.76;100.00
21111;BME280;10713;51.912;4.494;2022-11-20T12:57:21;100688.88;;;4.96;100.00
21111;BME280;10713;51.912;4.494;2022-11-20T13:00:15;100684.44;;;5.01;100.00
21111;BME280;10713;51.912;4.494;2022-11-20T13:08:34;100678.31;;;5.02;100.00
21111;BME280;10713;51.912;4.494;2022-11-20T13:16:33;100656.25;;;5.14;100.00
21111;BME280;10713;51.912;4.494;2022-11-20T13:19:05;100662.22;;;5.22;100.00
21111;BME280;10713;51.912;4.494;2022-11-20T13:21:40;100645.00;;;5.10;100.00
21111;BME280;10713;51.912;4.494;2022-11-20T13:24:07;100649.50;;;5.04;100.00
21111;BME280;10713;51.912;4.494;2022-11-20T13:26:33;100652.22;;;4.97;100.00
21111;BME280;10713;51.912;4.494;2022-11-20T13:29:10;100644.31;;;5.01;100.00
21111;BME280;10713;51.912;4.494;2022-11-20T13:31:40;100637.28;;;5.03;100.00
21111;BME280;10713;51.912;4.494;2022-11-20T13:34:07;100634.66;;;5.04;100.00
21111;BME280;10713;51.912;4.494;2022-11-20T13:36:48;100633.69;;;5.10;100.00
21111;BME280;10713;51.912;4.494;2022-11-20T13:39:27;100623.28;;;5.07;100.00
21111;BME280;10713;51.912;4.494;2022-11-20T13:42:01;100619.75;;;5.08;100.00
21111;BME280;10713;51.912;4.494;2022-11-20T13:44:33;100612.03;;;5.02;100.00
21111;BME280;10713;51.912;4.494;2022-11-20T13:47:03;100600.66;;;5.03;100.00
21111;BME280;10713;51.912;4.494;2022-11-20T13:49:38;100590.28;;;5.00;100.00
21111;BME280;10713;51.912;4.494;2022-11-20T13:55:10;100575.44;;;5.00;100.00
21111;BME280;10713;51.912;4.494;2022-11-20T13:57:46;100559.91;;;4.92;100.00
21111;BME280;10713;51.912;4.494;2022-11-20T14:00:19;100559.91;;;4.92;100.00
21111;BME280;10713;51.912;4.494;2022-11-20T14:03:35;100555.66;;;4.87;100.00
21111;BME280;10713;51.912;4.494;2022-11-20T14:05:49;100541.72;;;4.86;100.00
21111;BME280;10713;51.912;4.494;2022-11-20T14:08:31;100534.91;;;4.79;100.00
21111;BME280;10713;51.912;4.494;2022-11-20T14:11:05;100531.25;;;4.86;100.00
21111;BME280;10713;51.912;4.494;2022-11-20T14:13:31;100523.47;;;4.83;100.00
21111;BME280;10713;51.912;4.494;2022-11-20T14:15:57;100525.78;;;4.97;100.00
21111;BME280;10713;51.912;4.494;2022-11-20T14:18:22;100516.25;;;4.94;100.00
21111;BME280;10713;51.912;4.494;2022-11-20T14:20:48;100519.56;;;5.03;100.00
21111;BME280;10713;51.912;4.494;2022-11-20T14:23:23;100515.94;;;5.10;100.00